createdAt,value
2022-08-17T00:04:29.246Z,99963.60
2022-08-17T00:09:51.146Z,99961.60
2022-08-17T00:14:59.876Z,99961.00
2022-08-17T00:20:15.384Z,99958.80
2022-08-17T00:25:56.000Z,99956.80
2022-08-17T00:31:05.171Z,99953.00
2022-08-17T00:36:12.929Z,99946.80
2022-08-17T00:41:36.890Z,99945.60
2022-08-17T00:46:49.490Z,99952.20
2022-08-17T00:52:12.828Z,99957.40
2022-08-17T00:57:54.649Z,99964.40
2022-08-17T01:03:35.954Z,99970.00
2022-08-17T01:09:01.886Z,99968.20
2022-08-17T01:14:21.612Z,99963.80
2022-08-17T01:19:47.634Z,99970.60
2022-08-17T01:25:00.000Z,99976.60
2022-08-17T01:30:58.970Z,99979.00
2022-08-17T01:35:53.590Z,99977.60
2022-08-17T01:41:12.707Z,99974.80
2022-08-17T01:46:27.275Z,99976.80
2022-08-17T01:51:35.534Z,99982.60
2022-08-17T01:57:03.948Z,99978.80
2022-08-17T02:02:13.011Z,99984.20
2022-08-17T02:07:42.338Z,99980.40
2022-08-17T02:13:09.843Z,99975.00
2022-08-17T02:18:23.026Z,99970.60
2022-08-17T02:23:41.479Z,99967.00
2022-08-17T02:28:47.832Z,99975.40
2022-08-17T02:34:04.093Z,99968.20
2022-08-17T02:39:19.429Z,99964.40
2022-08-17T02:44:44.511Z,99961.20
2022-08-17T02:50:01.566Z,99959.80
2022-08-17T02:55:09.423Z,99965.00
2022-08-17T03:00:23.344Z,99960.20
2022-08-17T03:05:45.423Z,99957.80
2022-08-17T03:10:51.355Z,99951.80
2022-08-17T03:15:57.188Z,99950.60
2022-08-17T03:21:05.210Z,99959.40
2022-08-17T03:26:23.763Z,99959.00
2022-08-17T03:31:36.910Z,99967.60
2022-08-17T03:36:43.122Z,99967.00
2022-08-17T03:41:49.295Z,99966.80
2022-08-17T03:47:14.341Z,99966.40
2022-08-17T03:52:51.897Z,99965.40
2022-08-17T03:57:59.185Z,99969.20
2022-08-17T04:03:03.881Z,99966.40
2022-08-17T04:08:11.073Z,99972.80
2022-08-17T04:13:14.895Z,99977.20
2022-08-17T04:18:23.181Z,99980.20
2022-08-17T04:23:55.907Z,99983.00
2022-08-17T04:28:59.794Z,99978.20
2022-08-17T04:34:03.299Z,99974.40
2022-08-17T04:39:06.552Z,99979.00
2022-08-17T04:44:09.739Z,99982.00
2022-08-17T04:49:13.067Z,99981.00
2022-08-17T04:54:20.437Z,99973.20
2022-08-17T04:59:23.609Z,99977.80
2022-08-17T05:04:34.457Z,99977.80
2022-08-17T05:09:38.672Z,99987.20
2022-08-17T05:14:42.188Z,99984.20
2022-08-17T05:19:49.990Z,99992.00
2022-08-17T05:24:57.986Z,100002.20
2022-08-17T05:30:01.074Z,100003.40
2022-08-17T05:35:06.359Z,100004.00
2022-08-17T05:40:10.817Z,100005.40
2022-08-17T05:45:54.206Z,100007.60
2022-08-17T05:51:10.138Z,100009.80
2022-08-17T05:56:34.079Z,100004.20
2022-08-17T06:01:52.717Z,100005.00
2022-08-17T06:07:05.236Z,100012.60
2022-08-17T06:12:24.522Z,100010.80
2022-08-17T06:17:29.711Z,100020.80
2022-08-17T06:22:58.254Z,100025.00
2022-08-17T06:28:14.888Z,100031.40
2022-08-17T06:33:26.392Z,100032.80
2022-08-17T06:39:08.477Z,100036.00
2022-08-17T06:44:42.189Z,100036.20
2022-08-17T06:50:09.393Z,100033.80
2022-08-17T06:55:45.334Z,100038.80
2022-08-17T07:00:54.222Z,100042.40
2022-08-17T07:06:18.364Z,100044.20
2022-08-17T07:11:36.809Z,100040.40
2022-08-17T07:16:47.337Z,100046.00
2022-08-17T07:22:09.250Z,100041.40
2022-08-17T07:27:28.909Z,100040.40
2022-08-17T07:32:49.378Z,100044.80
2022-08-17T07:38:25.108Z,100046.00
2022-08-17T07:43:41.204Z,100047.00
2022-08-17T07:48:49.926Z,100043.60
2022-08-17T07:54:13.629Z,100049.00
2022-08-17T07:59:24.166Z,100046.60
2022-08-17T08:10:05.972Z,100051.20
2022-08-17T08:15:35.179Z,100046.60
2022-08-17T08:21:05.360Z,100047.20
2022-08-17T08:26:47.144Z,100046.60
2022-08-17T08:32:51.155Z,100051.60
2022-08-17T08:38:08.243Z,100054.80
2022-08-17T08:44:03.950Z,100053.80
2022-08-17T08:50:02.865Z,100051.40
2022-08-17T08:55:23.568Z,100050.60
2022-08-17T09:00:36.066Z,100048.40
2022-08-17T09:06:37.366Z,100043.20
2022-08-17T09:12:10.829Z,100035.80
2022-08-17T09:17:32.785Z,100052.20
2022-08-17T09:22:44.770Z,100054.20
2022-08-17T09:28:05.299Z,100050.20
2022-08-17T09:33:15.886Z,100044.60
2022-08-17T09:38:55.550Z,100042.60
2022-08-17T09:44:07.690Z,100044.60
2022-08-17T09:49:28.904Z,100051.40
2022-08-17T09:54:39.701Z,100051.20
2022-08-17T10:00:13.788Z,100050.80
2022-08-17T10:05:57.110Z,100043.20
2022-08-17T10:11:20.035Z,100038.80
2022-08-17T10:16:39.008Z,100044.20
2022-08-17T10:22:14.564Z,100044.60
2022-08-17T10:28:01.391Z,100045.20
2022-08-17T10:33:20.588Z,100041.40
2022-08-17T10:38:39.444Z,100046.20
2022-08-17T10:44:37.252Z,100045.20
2022-08-17T10:49:38.838Z,100050.80
2022-08-17T10:54:51.898Z,100045.00
2022-08-17T11:07:25.979Z,100042.40
2022-08-17T11:12:55.889Z,100035.80
2022-08-17T11:18:51.008Z,100033.20
2022-08-17T11:24:17.830Z,100031.00
2022-08-17T11:29:56.763Z,100031.60
2022-08-17T11:35:22.205Z,100032.20
2022-08-17T11:41:00.647Z,100037.60
2022-08-17T11:47:07.050Z,100035.00
2022-08-17T11:52:35.048Z,100039.40
2022-08-17T11:57:41.196Z,100038.20
2022-08-17T12:02:48.493Z,100040.20
2022-08-17T12:08:22.036Z,100032.20
2022-08-17T12:13:38.714Z,100034.20
2022-08-17T12:18:58.646Z,100033.20
2022-08-17T12:24:23.355Z,100031.60
2022-08-17T12:35:05.344Z,100043.80
2022-08-17T12:40:31.694Z,100044.20
2022-08-17T12:45:39.901Z,100041.80
2022-08-17T12:50:46.301Z,100046.20
2022-08-17T12:55:51.715Z,100045.80
2022-08-17T13:01:13.906Z,100054.60
2022-08-17T13:06:51.932Z,100059.00
2022-08-17T13:12:03.301Z,100059.40
2022-08-17T13:17:13.460Z,100060.40
2022-08-17T13:22:22.986Z,100052.40
2022-08-17T13:27:28.706Z,100054.60
2022-08-17T13:32:40.457Z,100047.00
2022-08-17T13:38:05.542Z,100043.60
2022-08-17T13:43:11.098Z,100040.60
2022-08-17T13:54:02.886Z,100033.20
2022-08-17T13:59:12.868Z,100034.00
2022-08-17T14:04:21.675Z,100040.40
2022-08-17T14:09:37.540Z,100036.40
2022-08-17T14:14:42.756Z,100028.60
2022-08-17T14:19:45.919Z,100033.60
2022-08-17T14:24:49.075Z,100029.40
2022-08-17T14:29:53.379Z,100030.80
2022-08-17T14:34:57.950Z,100031.20
2022-08-17T14:40:06.835Z,100027.60
2022-08-17T14:45:31.495Z,100030.80
2022-08-17T14:50:42.403Z,100029.80
2022-08-17T14:55:47.315Z,100033.00
2022-08-17T15:00:51.812Z,100036.80
2022-08-17T15:05:55.516Z,100034.80
2022-08-17T15:11:03.554Z,100032.60
2022-08-17T15:16:13.893Z,100035.20
2022-08-17T15:21:18.353Z,100040.60
2022-08-17T15:26:25.690Z,100039.60
2022-08-17T15:31:32.313Z,100034.40
2022-08-17T15:36:37.337Z,100034.20
2022-08-17T15:41:42.381Z,100025.80
2022-08-17T15:46:45.520Z,100031.00
2022-08-17T15:51:49.728Z,100033.20
2022-08-17T15:56:53.019Z,100033.80
2022-08-17T16:03:14.922Z,100038.60
2022-08-17T16:07:26.571Z,100039.60
2022-08-17T16:12:30.058Z,100039.40
2022-08-17T16:17:40.206Z,100034.60
2022-08-17T16:22:46.352Z,100035.40
2022-08-17T16:27:53.696Z,100048.00
2022-08-17T16:33:00.036Z,100052.80
2022-08-17T16:38:07.392Z,100055.60
2022-08-17T16:43:14.368Z,100053.00
2022-08-17T16:48:18.657Z,100047.60
2022-08-17T16:53:21.840Z,100058.80
2022-08-17T16:58:25.098Z,100057.60
2022-08-17T17:03:33.160Z,100056.40
2022-08-17T17:09:04.706Z,100067.80
2022-08-17T17:14:21.201Z,100070.00
2022-08-17T17:19:45.698Z,100068.20
2022-08-17T17:25:13.942Z,100077.80
2022-08-17T17:30:24.345Z,100087.00
2022-08-17T17:36:30.041Z,100083.00
2022-08-17T17:41:58.998Z,100082.80
2022-08-17T17:47:04.518Z,100089.20
2022-08-17T17:52:36.495Z,100094.00
2022-08-17T17:58:18.418Z,100100.80
2022-08-17T18:04:05.328Z,100105.00
2022-08-17T18:16:43.008Z,100109.20
2022-08-17T18:22:00.951Z,100119.40
2022-08-17T18:41:30.540Z,100136.60
2022-08-17T18:47:39.558Z,100141.60
2022-08-17T18:52:44.472Z,100134.80
2022-08-17T18:57:59.305Z,100135.20
2022-08-17T19:03:17.953Z,100142.60
2022-08-17T19:08:37.829Z,100145.60
2022-08-17T19:24:35.296Z,100161.20
2022-08-17T19:30:08.343Z,100163.40
2022-08-17T19:35:20.421Z,100163.20
2022-08-17T19:41:05.065Z,100161.40
2022-08-17T19:46:35.864Z,100167.60
2022-08-17T19:52:00.416Z,100176.60
2022-08-17T19:57:18.564Z,100190.20
2022-08-17T20:03:07.155Z,100192.00
2022-08-17T20:08:34.684Z,100207.20
2022-08-17T20:13:56.045Z,100210.60
2022-08-17T20:19:12.929Z,100217.40
2022-08-17T20:24:34.857Z,100221.20
2022-08-17T20:30:21.469Z,100213.80
2022-08-17T20:35:33.388Z,100209.20
2022-08-17T20:41:04.846Z,100220.60
2022-08-17T20:46:34.651Z,100216.60
2022-08-17T20:52:19.796Z,100219.60
2022-08-17T20:57:38.216Z,100217.80
2022-08-17T21:02:49.764Z,100222.60
2022-08-17T21:08:03.925Z,100223.60
2022-08-17T21:13:18.496Z,100216.60
2022-08-17T21:19:10.359Z,100221.20
2022-08-17T21:24:53.692Z,100225.40
2022-08-17T21:30:48.369Z,100226.00
2022-08-17T21:36:15.792Z,100235.80
2022-08-17T21:41:48.000Z,100234.80
2022-08-17T21:47:13.534Z,100228.20
2022-08-17T21:52:34.146Z,100239.00
2022-08-17T21:57:52.963Z,100227.00
2022-08-17T22:03:31.477Z,100223.80
2022-08-17T22:08:48.923Z,100216.00
2022-08-17T22:14:05.874Z,100212.20
2022-08-17T22:19:17.891Z,100206.20
2022-08-17T22:24:31.139Z,100198.60
2022-08-17T22:30:46.160Z,100190.00
2022-08-17T22:36:43.580Z,100191.80
2022-08-17T22:42:12.410Z,100184.00
2022-08-17T22:47:48.967Z,100184.60
2022-08-17T22:54:03.964Z,100196.00
2022-08-17T22:59:55.707Z,100196.40
2022-08-17T23:05:32.261Z,100202.20
2022-08-17T23:10:43.305Z,100201.20
2022-08-17T23:15:51.510Z,100196.00
2022-08-17T23:21:07.432Z,100195.80
2022-08-17T23:26:55.560Z,100192.00
2022-08-17T23:32:04.914Z,100188.60
2022-08-17T23:37:40.477Z,100186.60
2022-08-17T23:43:17.451Z,100197.20
2022-08-17T23:48:44.466Z,100191.40
2022-08-17T23:54:08.353Z,100201.60
2022-08-17T23:59:23.709Z,100198.00
